createdAt,value
2019-04-05T00:02:17.475Z,12.05
2019-04-05T00:04:47.634Z,20.82
2019-04-05T00:07:17.700Z,15.60
2019-04-05T00:09:47.528Z,15.80
2019-04-05T00:12:17.354Z,27.45
2019-04-05T00:14:47.104Z,15.00
2019-04-05T00:17:17.059Z,16.25
2019-04-05T00:19:47.005Z,15.32
2019-04-05T00:22:17.023Z,13.48
2019-04-05T00:24:46.929Z,16.70
2019-04-05T00:27:16.861Z,13.18
2019-04-05T00:29:46.730Z,25.88
2019-04-05T00:32:16.680Z,14.03
2019-04-05T00:34:46.564Z,14.85
2019-04-05T00:37:16.407Z,15.23
2019-04-05T00:39:47.480Z,16.10
2019-04-05T00:42:18.032Z,20.60
2019-04-05T00:44:49.018Z,15.70
2019-04-05T00:47:19.518Z,11.95
2019-04-05T00:49:49.344Z,22.80
2019-04-05T00:52:19.347Z,29.48
2019-04-05T00:54:49.316Z,28.80
2019-04-05T00:57:19.244Z,25.32
2019-04-05T00:59:49.153Z,36.45
2019-04-05T01:02:19.371Z,29.52
2019-04-05T01:04:49.248Z,29.55
2019-04-05T01:07:19.276Z,27.15
2019-04-05T01:09:49.408Z,19.98
2019-04-05T01:12:21.082Z,30.48
2019-04-05T01:14:51.451Z,21.27
2019-04-05T01:17:25.111Z,18.70
2019-04-05T01:19:56.416Z,20.40
2019-04-05T01:22:28.163Z,15.55
2019-04-05T01:24:58.674Z,20.17
2019-04-05T01:27:30.280Z,13.08
2019-04-05T01:30:00.398Z,17.07
2019-04-05T01:32:30.537Z,14.70
2019-04-05T01:35:00.512Z,18.55
2019-04-05T01:37:30.596Z,15.23
2019-04-05T01:40:01.332Z,25.08
2019-04-05T01:42:31.827Z,15.15
2019-04-05T01:45:01.841Z,16.15
2019-04-05T01:47:32.723Z,11.97
2019-04-05T01:50:03.701Z,13.15
2019-04-05T01:52:34.679Z,16.37
2019-04-05T01:55:04.883Z,12.07
2019-04-05T01:57:34.943Z,12.60
2019-04-05T02:00:06.215Z,11.78
2019-04-05T02:02:36.287Z,12.75
2019-04-05T02:05:07.654Z,13.55
2019-04-05T02:07:37.807Z,13.90
2019-04-05T02:10:08.825Z,11.73
2019-04-05T02:12:40.496Z,27.98
2019-04-05T02:15:12.182Z,15.28
2019-04-05T02:17:42.187Z,19.82
2019-04-05T02:20:12.332Z,15.78
2019-04-05T02:22:42.496Z,13.05
2019-04-05T02:25:12.408Z,21.25
2019-04-05T02:27:42.382Z,24.25
2019-04-05T02:30:12.424Z,19.05
2019-04-05T02:32:42.372Z,21.15
2019-04-05T02:35:12.749Z,17.00
2019-04-05T02:37:42.675Z,18.62
2019-04-05T02:40:14.021Z,25.10
2019-04-05T02:42:47.243Z,12.73
2019-04-05T02:45:19.340Z,17.23
2019-04-05T02:47:52.910Z,20.15
2019-04-05T02:50:25.382Z,13.23
2019-04-05T02:52:58.275Z,19.20
2019-04-05T02:55:29.806Z,23.55
2019-04-05T02:58:01.425Z,19.20
2019-04-05T03:00:32.428Z,15.78
2019-04-05T03:03:05.858Z,25.62
2019-04-05T03:05:36.661Z,28.10
2019-04-05T03:08:08.182Z,20.45
2019-04-05T03:11:02.667Z,12.05
2019-04-05T03:13:38.449Z,10.10
2019-04-05T03:16:18.717Z,9.88
2019-04-05T03:18:55.644Z,13.10
2019-04-05T03:21:28.803Z,18.60
2019-04-05T03:24:01.151Z,13.72
2019-04-05T03:26:34.033Z,21.10
2019-04-05T03:29:07.883Z,13.22
2019-04-05T03:31:38.934Z,16.42
2019-04-05T03:34:09.050Z,19.25
2019-04-05T03:36:40.747Z,16.42
2019-04-05T03:39:10.886Z,14.25
2019-04-05T03:41:40.832Z,20.08
2019-04-05T03:44:11.523Z,14.63
2019-04-05T03:46:55.224Z,18.75
2019-04-05T03:49:13.645Z,25.23
2019-04-05T03:51:44.754Z,21.17
2019-04-05T03:54:14.629Z,27.00
2019-04-05T03:56:44.850Z,26.23
2019-04-05T03:59:15.129Z,13.70
2019-04-05T04:01:45.580Z,12.88
2019-04-05T04:04:15.652Z,17.05
2019-04-05T04:06:45.834Z,10.68
2019-04-05T04:09:15.621Z,32.55
2019-04-05T04:11:45.957Z,14.00
2019-04-05T04:14:16.189Z,21.27
2019-04-05T04:16:46.390Z,31.52
2019-04-05T04:19:16.527Z,34.10
2019-04-05T04:21:53.930Z,18.95
2019-04-05T04:24:23.894Z,28.27
2019-04-05T04:26:53.843Z,24.57
2019-04-05T04:29:24.338Z,33.60
2019-04-05T04:31:54.674Z,24.55
2019-04-05T04:34:24.738Z,23.83
2019-04-05T04:36:54.746Z,22.75
2019-04-05T04:39:24.721Z,46.23
2019-04-05T04:41:54.940Z,24.63
2019-04-05T04:44:25.727Z,28.77
2019-04-05T04:46:55.981Z,18.92
2019-04-05T04:49:25.908Z,22.20
2019-04-05T04:51:55.786Z,12.78
2019-04-05T04:54:26.052Z,14.43
2019-04-05T04:56:56.169Z,20.10
2019-04-05T04:59:26.692Z,19.52
2019-04-05T05:01:57.868Z,10.68
2019-04-05T05:04:28.307Z,10.58
2019-04-05T05:06:58.386Z,28.85
2019-04-05T05:09:28.604Z,17.15
2019-04-05T05:11:58.673Z,20.97
2019-04-05T05:14:28.955Z,11.60
2019-04-05T05:16:59.177Z,9.78
2019-04-05T05:19:29.682Z,15.98
2019-04-05T05:21:59.819Z,15.80
2019-04-05T05:24:30.168Z,11.90
2019-04-05T05:27:00.387Z,10.93
2019-04-05T05:29:30.777Z,15.00
2019-04-05T05:32:00.739Z,16.07
2019-04-05T05:34:30.570Z,9.58
2019-04-05T05:37:00.951Z,19.52
2019-04-05T05:39:31.016Z,14.78
2019-04-05T05:42:01.013Z,16.93
2019-04-05T05:44:31.031Z,15.60
2019-04-05T05:47:00.901Z,10.48
2019-04-05T05:49:30.666Z,11.22
2019-04-05T05:52:01.102Z,12.95
2019-04-05T05:54:30.887Z,21.50
2019-04-05T05:57:00.676Z,20.10
2019-04-05T05:59:30.916Z,19.52
2019-04-05T06:02:01.840Z,26.37
2019-04-05T06:04:31.755Z,14.68
2019-04-05T06:07:02.217Z,10.90
2019-04-05T06:09:32.090Z,15.72
2019-04-05T06:12:02.315Z,24.47
2019-04-05T06:14:32.219Z,24.92
2019-04-05T06:17:02.074Z,29.20
2019-04-05T06:19:32.589Z,18.57
2019-04-05T06:22:02.711Z,15.30
2019-04-05T06:24:32.558Z,29.23
2019-04-05T06:27:02.493Z,31.60
2019-04-05T06:29:32.329Z,19.25
2019-04-05T06:32:02.188Z,45.35
2019-04-05T06:34:32.065Z,17.27
2019-04-05T06:37:02.063Z,24.32
2019-04-05T06:39:32.926Z,18.90
2019-04-05T06:42:02.710Z,18.05
2019-04-05T06:44:32.651Z,27.60
2019-04-05T06:47:02.769Z,30.35
2019-04-05T06:49:33.501Z,28.92
2019-04-05T06:52:04.496Z,29.32
2019-04-05T06:54:34.636Z,36.73
2019-04-05T06:57:04.573Z,22.90
2019-04-05T06:59:35.401Z,16.93
2019-04-05T07:02:05.386Z,17.27
2019-04-05T07:04:35.658Z,33.30
2019-04-05T07:07:05.657Z,30.90
2019-04-05T07:09:35.399Z,15.15
2019-04-05T07:12:05.728Z,27.40
2019-04-05T07:14:35.495Z,24.72
2019-04-05T07:17:06.085Z,46.60
2019-04-05T07:19:35.935Z,25.43
2019-04-05T07:22:05.897Z,22.87
2019-04-05T07:24:35.644Z,17.60
2019-04-05T07:27:05.460Z,29.80
2019-04-05T07:29:35.232Z,16.25
2019-04-05T07:32:05.413Z,26.82
2019-04-05T07:34:35.228Z,14.47
2019-04-05T07:37:05.562Z,17.98
2019-04-05T07:39:35.456Z,12.75
2019-04-05T07:42:05.762Z,14.63
2019-04-05T07:44:35.730Z,31.02
2019-04-05T07:47:05.633Z,27.00
2019-04-05T07:49:35.499Z,29.82
2019-04-05T07:52:05.397Z,25.40
2019-04-05T07:54:35.258Z,14.78
2019-04-05T07:57:05.170Z,15.75
2019-04-05T07:59:34.952Z,58.23
2019-04-05T08:02:04.874Z,19.40
2019-04-05T08:04:35.678Z,17.70
2019-04-05T08:07:06.940Z,21.42
2019-04-05T08:09:38.662Z,29.55
2019-04-05T08:12:09.062Z,22.85
2019-04-05T08:14:40.924Z,21.82
2019-04-05T08:17:10.775Z,15.78
2019-04-05T08:19:41.075Z,15.63
2019-04-05T08:22:11.040Z,43.95
2019-04-05T08:24:41.057Z,23.90
2019-04-05T08:27:10.933Z,20.62
2019-04-05T08:29:40.783Z,20.75
2019-04-05T08:32:14.920Z,37.13
2019-04-05T08:34:42.107Z,26.17
2019-04-05T08:37:11.906Z,16.25
2019-04-05T08:39:41.878Z,14.25
2019-04-05T08:42:11.786Z,14.75
2019-04-05T08:44:41.622Z,23.27
2019-04-05T08:47:11.593Z,14.10
2019-04-05T08:49:41.410Z,28.23
2019-04-05T08:52:11.333Z,15.90
2019-04-05T08:54:41.355Z,39.27
2019-04-05T08:57:11.455Z,19.07
2019-04-05T08:59:41.411Z,27.37
2019-04-05T09:02:11.327Z,26.68
2019-04-05T09:04:41.215Z,25.65
2019-04-05T09:07:11.131Z,16.48
2019-04-05T09:09:40.975Z,18.05
2019-04-05T09:12:10.858Z,12.23
2019-04-05T09:14:40.662Z,11.18
2019-04-05T09:17:10.557Z,13.20
2019-04-05T09:19:40.421Z,13.68
2019-04-05T09:22:10.277Z,12.85
2019-04-05T09:24:40.178Z,20.85
2019-04-05T09:27:10.140Z,16.52
2019-04-05T09:29:40.131Z,17.25
2019-04-05T09:32:09.932Z,19.02
2019-04-05T09:34:39.779Z,12.80
2019-04-05T09:37:09.610Z,12.40
2019-04-05T09:39:39.399Z,18.80
2019-04-05T09:42:09.431Z,25.88
2019-04-05T09:44:39.319Z,14.68
2019-04-05T09:47:09.174Z,10.75
2019-04-05T09:49:39.148Z,10.65
2019-04-05T09:52:08.935Z,19.23
2019-04-05T09:54:39.094Z,21.70
2019-04-05T09:57:09.951Z,11.40
2019-04-05T09:59:39.826Z,13.28
2019-04-05T10:02:09.885Z,10.82
2019-04-05T10:04:39.682Z,20.68
2019-04-05T10:07:09.609Z,23.40
2019-04-05T10:09:39.798Z,24.95
2019-04-05T10:12:09.717Z,13.68
2019-04-05T10:14:39.813Z,15.98
2019-04-05T10:17:10.245Z,12.28
2019-04-05T10:19:49.816Z,10.28
2019-04-05T10:22:11.638Z,9.95
2019-04-05T10:24:41.684Z,12.03
2019-04-05T10:27:11.505Z,8.60
2019-04-05T10:29:42.173Z,6.92
2019-04-05T10:32:11.957Z,11.08
2019-04-05T10:34:41.837Z,17.27
2019-04-05T10:37:11.583Z,14.45
2019-04-05T10:39:41.499Z,11.12
2019-04-05T10:42:20.051Z,7.90
2019-04-05T10:44:49.830Z,24.32
2019-04-05T10:47:19.600Z,13.22
2019-04-05T10:50:01.698Z,7.53
2019-04-05T10:52:20.895Z,8.68
2019-04-05T10:54:50.830Z,9.45
2019-04-05T10:57:20.933Z,10.15
2019-04-05T10:59:51.276Z,5.90
2019-04-05T11:02:21.215Z,11.18
2019-04-05T11:04:51.110Z,8.00
2019-04-05T11:07:20.900Z,6.50
2019-04-05T11:09:53.472Z,9.03
2019-04-05T11:12:22.440Z,6.42
2019-04-05T11:14:53.346Z,8.40
2019-04-05T11:17:23.256Z,4.08
2019-04-05T11:19:53.079Z,6.05
2019-04-05T11:22:23.145Z,5.58
2019-04-05T11:24:52.900Z,4.78
2019-04-05T11:27:22.668Z,4.83
2019-04-05T11:29:52.462Z,7.67
2019-04-05T11:32:22.984Z,7.65
2019-04-05T11:34:53.156Z,5.10
2019-04-05T11:37:23.614Z,5.78
2019-04-05T11:39:53.523Z,8.58
2019-04-05T11:42:25.674Z,6.75
2019-04-05T11:44:58.733Z,4.28
2019-04-05T11:47:30.822Z,4.35
2019-04-05T11:50:02.528Z,4.87
2019-04-05T11:52:32.516Z,6.33
2019-04-05T11:55:04.670Z,6.60
2019-04-05T11:57:34.188Z,4.83
2019-04-05T12:00:07.471Z,4.90
2019-04-05T12:02:41.098Z,11.45
2019-04-05T12:05:13.131Z,5.87
2019-04-05T12:07:43.013Z,5.35
2019-04-05T12:10:13.010Z,5.70
2019-04-05T12:12:42.948Z,5.67
2019-04-05T12:15:13.184Z,8.05
2019-04-05T12:17:43.339Z,7.53
2019-04-05T12:20:13.974Z,6.10
2019-04-05T12:22:43.783Z,6.45
2019-04-05T12:25:14.176Z,5.45
2019-04-05T12:27:44.177Z,4.30
2019-04-05T12:30:17.526Z,4.33
2019-04-05T12:32:48.815Z,4.87
2019-04-05T12:35:21.553Z,5.92
2019-04-05T12:37:55.512Z,8.38
2019-04-05T12:40:23.054Z,6.83
2019-04-05T12:42:53.284Z,6.60
2019-04-05T12:45:23.147Z,7.42
2019-04-05T12:47:52.918Z,6.60
2019-04-05T12:50:22.687Z,10.95
2019-04-05T12:52:54.732Z,10.28
2019-04-05T12:55:24.662Z,7.08
2019-04-05T12:57:56.204Z,6.25
2019-04-05T13:00:26.482Z,6.33
2019-04-05T13:02:57.245Z,6.47
2019-04-05T13:05:27.335Z,8.10
2019-04-05T13:07:57.087Z,12.18
2019-04-05T13:10:30.272Z,5.58
2019-04-05T13:12:58.565Z,9.68
2019-04-05T13:15:28.485Z,8.60
2019-04-05T13:18:00.424Z,11.55
2019-04-05T13:20:30.371Z,6.12
2019-04-05T13:23:04.449Z,6.85
2019-04-05T13:25:33.421Z,7.37
2019-04-05T13:28:12.694Z,5.40
2019-04-05T13:30:35.730Z,6.42
2019-04-05T13:33:05.710Z,5.92
2019-04-05T13:35:36.498Z,5.83
2019-04-05T13:38:06.663Z,6.45
2019-04-05T13:40:36.982Z,5.62
2019-04-05T13:43:06.953Z,6.50
2019-04-05T13:45:36.830Z,7.33
2019-04-05T13:48:09.083Z,6.05
2019-04-05T13:50:41.470Z,5.28
2019-04-05T13:53:11.329Z,6.17
2019-04-05T13:55:41.871Z,5.40
2019-04-05T13:58:12.078Z,5.90
2019-04-05T14:00:42.023Z,5.75
2019-04-05T14:03:12.012Z,5.42
2019-04-05T14:05:41.866Z,7.03
2019-04-05T14:08:11.604Z,7.12
2019-04-05T14:10:42.049Z,7.25
2019-04-05T14:13:11.861Z,7.78
2019-04-05T14:15:43.081Z,8.98
2019-04-05T14:18:15.261Z,7.22
2019-04-05T14:20:45.237Z,10.55
2019-04-05T14:23:15.126Z,14.10
2019-04-05T14:25:45.138Z,8.03
2019-04-05T14:28:15.243Z,9.78
2019-04-05T14:30:47.676Z,6.42
2019-04-05T14:33:17.710Z,6.58
2019-04-05T14:35:47.748Z,6.97
2019-04-05T14:38:17.629Z,17.57
2019-04-05T14:40:47.558Z,7.08
2019-04-05T14:43:17.622Z,7.17
2019-04-05T14:45:48.409Z,7.95
2019-04-05T14:48:18.234Z,9.28
2019-04-05T14:50:48.099Z,7.03
2019-04-05T14:53:17.956Z,4.75
2019-04-05T14:55:47.872Z,7.40
2019-04-05T14:58:19.221Z,6.35
2019-04-05T15:00:49.521Z,15.58
2019-04-05T15:03:19.636Z,6.80
2019-04-05T15:05:49.518Z,7.58
2019-04-05T15:08:20.684Z,19.05
2019-04-05T15:10:51.416Z,10.58
2019-04-05T15:13:21.520Z,10.23
2019-04-05T15:15:51.310Z,9.68
2019-04-05T15:18:24.228Z,6.80
2019-04-05T15:20:52.645Z,6.53
2019-04-05T15:23:22.582Z,8.00
2019-04-05T15:25:52.525Z,9.88
2019-04-05T15:28:24.577Z,9.95
2019-04-05T15:30:56.158Z,7.03
2019-04-05T15:33:27.750Z,9.78
2019-04-05T15:36:00.203Z,13.93
2019-04-05T15:38:31.474Z,13.95
2019-04-05T15:41:00.953Z,15.03
2019-04-05T15:43:31.864Z,9.43
2019-04-05T15:46:03.284Z,8.00
2019-04-05T15:48:33.211Z,9.10
2019-04-05T15:51:03.262Z,8.75
2019-04-05T15:53:33.380Z,8.20
2019-04-05T15:56:04.272Z,9.75
2019-04-05T15:58:34.704Z,11.60
2019-04-05T16:01:05.958Z,11.48
2019-04-05T16:03:37.022Z,7.97
2019-04-05T16:06:08.168Z,9.13
2019-04-05T16:08:38.458Z,9.78
2019-04-05T16:11:08.373Z,8.03
2019-04-05T16:13:38.300Z,8.08
2019-04-05T16:16:08.204Z,9.68
2019-04-05T16:18:38.229Z,10.60
2019-04-05T16:21:08.064Z,8.38
2019-04-05T16:23:39.312Z,8.25
2019-04-05T16:26:09.298Z,8.45
2019-04-05T16:28:40.954Z,7.75
2019-04-05T16:31:11.149Z,5.35
2019-04-05T16:33:41.756Z,9.63
2019-04-05T16:36:11.700Z,10.30
2019-04-05T16:38:41.532Z,10.43
2019-04-05T16:41:11.427Z,9.93
2019-04-05T16:43:41.235Z,7.62
2019-04-05T16:46:11.149Z,10.00
2019-04-05T16:48:41.050Z,8.83
2019-04-05T16:51:10.902Z,9.80
2019-04-05T16:53:59.467Z,10.55
2019-04-05T16:56:29.909Z,9.48
2019-04-05T16:58:59.951Z,10.50
2019-04-05T17:01:29.924Z,8.83
2019-04-05T17:03:59.818Z,8.18
2019-04-05T17:06:29.766Z,8.55
2019-04-05T17:08:59.579Z,10.58
2019-04-05T17:11:29.681Z,7.58
2019-04-05T17:13:59.710Z,7.87
2019-04-05T17:16:29.674Z,7.92
2019-04-05T17:18:59.785Z,7.87
2019-04-05T17:21:29.701Z,7.25
2019-04-05T17:24:01.023Z,6.60
2019-04-05T17:26:31.446Z,9.98
2019-04-05T17:29:02.392Z,10.90
2019-04-05T17:31:32.199Z,19.07
2019-04-05T17:34:02.207Z,12.33
2019-04-05T17:36:32.123Z,8.25
2019-04-05T17:39:05.018Z,8.63
2019-04-05T17:41:34.842Z,6.70
2019-04-05T17:44:04.864Z,9.83
2019-04-05T17:46:34.774Z,8.93
2019-04-05T17:49:04.916Z,7.70
2019-04-05T17:51:34.668Z,7.40
2019-04-05T17:54:04.907Z,7.67
2019-04-05T17:56:35.825Z,9.45
2019-04-05T17:59:05.992Z,9.58
2019-04-05T18:01:38.664Z,10.13
2019-04-05T18:04:08.122Z,10.58
2019-04-05T18:06:38.296Z,14.00
2019-04-05T18:09:08.389Z,8.68
2019-04-05T18:11:38.477Z,11.90
2019-04-05T18:14:08.440Z,10.00
2019-04-05T18:16:38.363Z,7.78
2019-04-05T18:19:08.395Z,11.35
2019-04-05T18:21:38.419Z,11.53
2019-04-05T18:24:09.565Z,9.55
2019-04-05T18:26:39.441Z,14.87
2019-04-05T18:29:09.454Z,10.95
2019-04-05T18:31:39.572Z,9.30
2019-04-05T18:34:09.466Z,15.38
2019-04-05T18:36:39.582Z,12.33
2019-04-05T18:39:10.094Z,9.98
2019-04-05T18:41:40.175Z,7.83
2019-04-05T18:44:10.427Z,10.08
2019-04-05T18:46:40.336Z,8.40
2019-04-05T18:49:11.020Z,8.05
2019-04-05T18:51:42.153Z,10.30
2019-04-05T18:54:12.005Z,9.60
2019-04-05T18:56:41.996Z,10.68
2019-04-05T18:59:12.126Z,8.78
2019-04-05T19:01:42.526Z,10.80
2019-04-05T19:04:13.064Z,11.35
2019-04-05T19:06:42.980Z,9.38
2019-04-05T19:09:12.799Z,13.45
2019-04-05T19:11:42.898Z,12.18
2019-04-05T19:14:13.099Z,11.43
2019-04-05T19:16:43.074Z,11.12
2019-04-05T19:19:13.011Z,11.48
2019-04-05T19:21:43.093Z,9.95
2019-04-05T19:24:12.884Z,10.90
2019-04-05T19:26:42.739Z,10.65
2019-04-05T19:29:12.789Z,14.53
2019-04-05T19:49:24.447Z,11.48
2019-04-05T19:51:54.303Z,11.50
2019-04-05T19:54:26.407Z,16.73
2019-04-05T19:56:55.855Z,12.18
2019-04-05T19:59:25.810Z,11.85
2019-04-05T20:01:55.775Z,14.73
2019-04-05T20:04:25.791Z,14.10
2019-04-05T20:06:58.709Z,16.93
2019-04-05T20:09:27.716Z,11.18
2019-04-05T20:11:57.559Z,16.97
2019-04-05T20:14:27.361Z,11.10
2019-04-05T20:16:57.330Z,12.20
2019-04-05T20:19:28.188Z,14.10
2019-04-05T20:21:58.265Z,13.22
2019-04-05T20:24:28.201Z,14.80
2019-04-05T20:26:58.479Z,19.10
2019-04-05T20:29:28.385Z,21.20
2019-04-05T20:31:58.410Z,24.37
2019-04-05T20:34:28.331Z,15.98
2019-04-05T20:36:59.302Z,16.35
2019-04-05T20:39:29.373Z,13.10
2019-04-05T20:41:59.168Z,12.55
2019-04-05T20:44:29.011Z,13.40
2019-04-05T20:46:58.796Z,14.55
2019-04-05T20:49:29.132Z,18.95
2019-04-05T20:51:58.992Z,23.10
2019-04-05T20:54:29.216Z,14.35
2019-04-05T20:56:59.105Z,19.02
2019-04-05T20:59:29.192Z,36.98
2019-04-05T21:01:59.031Z,28.52
2019-04-05T21:04:28.868Z,26.87
2019-04-05T21:06:58.788Z,29.30
2019-04-05T21:09:28.681Z,34.48
2019-04-05T21:11:59.031Z,32.00
2019-04-05T21:14:29.028Z,25.37
2019-04-05T21:16:58.853Z,17.57
2019-04-05T21:19:31.868Z,17.17
2019-04-05T21:22:01.655Z,19.23
2019-04-05T21:24:36.399Z,24.77
2019-04-05T21:27:03.353Z,26.25
2019-04-05T21:29:33.358Z,16.15
2019-04-05T21:32:08.122Z,40.23
2019-04-05T21:34:38.030Z,19.27
2019-04-05T21:37:07.896Z,15.43
2019-04-05T21:39:37.804Z,23.45
2019-04-05T21:42:07.908Z,34.58
2019-04-05T21:44:38.331Z,17.48
2019-04-05T21:47:08.837Z,20.85
2019-04-05T21:49:39.779Z,12.75
2019-04-05T21:52:10.037Z,36.17
2019-04-05T21:54:47.440Z,30.10
2019-04-05T21:57:12.103Z,19.62
2019-04-05T21:59:41.851Z,19.15
2019-04-05T22:02:11.839Z,20.02
2019-04-05T22:04:41.745Z,35.35
2019-04-05T22:07:12.488Z,22.85
2019-04-05T22:09:42.669Z,23.42
2019-04-05T22:12:12.514Z,33.75
2019-04-05T22:14:44.973Z,13.70
2019-04-05T22:17:15.477Z,35.50
2019-04-05T22:19:49.701Z,32.20
2019-04-05T22:22:20.059Z,19.50
2019-04-05T22:24:58.822Z,31.20
2019-04-05T22:27:22.272Z,27.40
2019-04-05T22:29:52.435Z,24.47
2019-04-05T22:32:22.502Z,35.00
2019-04-05T22:34:52.636Z,18.27
2019-04-05T22:37:23.057Z,20.08
2019-04-05T22:39:53.397Z,14.68
2019-04-05T22:42:23.201Z,14.10
2019-04-05T22:44:53.107Z,17.07
2019-04-05T22:47:22.914Z,16.32
2019-04-05T22:49:52.717Z,12.10
2019-04-05T22:52:22.558Z,11.28
2019-04-05T22:54:53.390Z,11.73
2019-04-05T22:57:23.344Z,12.63
2019-04-05T22:59:53.131Z,29.12
2019-04-05T23:02:23.022Z,14.20
2019-04-05T23:04:53.220Z,16.48
2019-04-05T23:07:23.179Z,19.52
2019-04-05T23:09:52.992Z,16.20
2019-04-05T23:12:22.915Z,25.50
2019-04-05T23:14:52.826Z,16.23
2019-04-05T23:17:22.725Z,15.25
2019-04-05T23:19:52.744Z,19.60
2019-04-05T23:22:22.883Z,19.85
2019-04-05T23:24:52.987Z,16.00
2019-04-05T23:27:22.934Z,34.20
2019-04-05T23:29:52.809Z,25.08
2019-04-05T23:32:22.826Z,21.27
2019-04-05T23:34:52.693Z,41.25
2019-04-05T23:37:22.537Z,31.55
2019-04-05T23:39:52.492Z,19.17
2019-04-05T23:42:22.424Z,20.30
2019-04-05T23:44:52.569Z,22.48
2019-04-05T23:47:22.386Z,20.40
2019-04-05T23:49:52.377Z,16.50
2019-04-05T23:52:22.230Z,15.58
2019-04-05T23:54:52.110Z,17.32
2019-04-05T23:57:21.941Z,25.15
2019-04-05T23:59:51.869Z,26.85
